sensor_id;sensor_type;location;lat;lon;timestamp;P1;durP1;ratioP1;P2;durP2;ratioP2
57325;SDS011;43161;50.950;18.224;2023-06-01T00:00:37;15.10;;;5.30;;
57325;SDS011;43161;50.950;18.224;2023-06-01T00:03:05;13.70;;;5.00;;
57325;SDS011;43161;50.950;18.224;2023-06-01T00:05:31;13.50;;;4.80;;
57325;SDS011;43161;50.950;18.224;2023-06-01T00:07:57;12.60;;;4.70;;
57325;SDS011;43161;50.950;18.224;2023-06-01T00:10:23;10.60;;;3.90;;
57325;SDS011;43161;50.950;18.224;2023-06-01T00:12:48;10.00;;;4.00;;
57325;SDS011;43161;50.950;18.224;2023-06-01T00:15:14;11.40;;;4.80;;
57325;SDS011;43161;50.950;18.224;2023-06-01T00:17:40;11.60;;;4.30;;
57325;SDS011;43161;50.950;18.224;2023-06-01T00:20:06;12.30;;;4.30;;
57325;SDS011;43161;50.950;18.224;2023-06-01T00:22:34;11.10;;;4.20;;
57325;SDS011;43161;50.950;18.224;2023-06-01T00:25:07;12.90;;;4.90;;
57325;SDS011;43161;50.950;18.224;2023-06-01T00:27:33;12.40;;;5.20;;
57325;SDS011;43161;50.950;18.224;2023-06-01T00:29:59;12.80;;;4.70;;
57325;SDS011;43161;50.950;18.224;2023-06-01T00:32:25;13.90;;;5.30;;
57325;SDS011;43161;50.950;18.224;2023-06-01T00:34:51;13.80;;;5.70;;
57325;SDS011;43161;50.950;18.224;2023-06-01T00:37:16;16.90;;;8.30;;
57325;SDS011;43161;50.950;18.224;2023-06-01T00:39:42;17.90;;;9.40;;
57325;SDS011;43161;50.950;18.224;2023-06-01T00:42:07;13.30;;;5.70;;
57325;SDS011;43161;50.950;18.224;2023-06-01T00:44:33;18.00;;;5.60;;
57325;SDS011;43161;50.950;18.224;2023-06-01T00:46:58;14.80;;;5.90;;
57325;SDS011;43161;50.950;18.224;2023-06-01T00:49:25;12.60;;;6.00;;
57325;SDS011;43161;50.950;18.224;2023-06-01T00:51:51;12.10;;;5.20;;
57325;SDS011;43161;50.950;18.224;2023-06-01T00:54:18;13.00;;;5.90;;
57325;SDS011;43161;50.950;18.224;2023-06-01T00:56:44;15.50;;;5.70;;
57325;SDS011;43161;50.950;18.224;2023-06-01T00:59:11;16.10;;;6.00;;
57325;SDS011;43161;50.950;18.224;2023-06-01T01:01:37;14.80;;;6.30;;
57325;SDS011;43161;50.950;18.224;2023-06-01T01:04:03;15.20;;;6.20;;
57325;SDS011;43161;50.950;18.224;2023-06-01T01:09:21;14.00;;;6.10;;
57325;SDS011;43161;50.950;18.224;2023-06-01T01:11:52;13.50;;;6.10;;
57325;SDS011;43161;50.950;18.224;2023-06-01T01:14:48;12.90;;;6.10;;
57325;SDS011;43161;50.950;18.224;2023-06-01T01:17:36;17.30;;;6.50;;
57325;SDS011;43161;50.950;18.224;2023-06-01T01:20:23;15.00;;;6.40;;
57325;SDS011;43161;50.950;18.224;2023-06-01T01:28:29;15.10;;;6.70;;
57325;SDS011;43161;50.950;18.224;2023-06-01T01:31:09;17.50;;;7.20;;
57325;SDS011;43161;50.950;18.224;2023-06-01T01:33:37;12.80;;;6.50;;
57325;SDS011;43161;50.950;18.224;2023-06-01T01:36:03;15.90;;;6.70;;
57325;SDS011;43161;50.950;18.224;2023-06-01T01:38:29;17.60;;;6.90;;
57325;SDS011;43161;50.950;18.224;2023-06-01T01:40:54;16.00;;;7.30;;
57325;SDS011;43161;50.950;18.224;2023-06-01T01:43:21;14.00;;;6.40;;
57325;SDS011;43161;50.950;18.224;2023-06-01T01:45:49;14.60;;;6.20;;
57325;SDS011;43161;50.950;18.224;2023-06-01T01:48:23;16.00;;;6.70;;
57325;SDS011;43161;50.950;18.224;2023-06-01T01:51:31;15.30;;;7.00;;
57325;SDS011;43161;50.950;18.224;2023-06-01T01:53:55;15.50;;;6.90;;
57325;SDS011;43161;50.950;18.224;2023-06-01T01:56:22;19.10;;;7.30;;
57325;SDS011;43161;50.950;18.224;2023-06-01T01:58:48;14.00;;;6.70;;
57325;SDS011;43161;50.950;18.224;2023-06-01T02:01:14;19.40;;;7.20;;
57325;SDS011;43161;50.950;18.224;2023-06-01T02:03:41;13.70;;;6.80;;
57325;SDS011;43161;50.950;18.224;2023-06-01T02:06:06;18.70;;;7.30;;
57325;SDS011;43161;50.950;18.224;2023-06-01T02:08:32;15.40;;;7.40;;
57325;SDS011;43161;50.950;18.224;2023-06-01T02:10:58;15.40;;;7.10;;
57325;SDS011;43161;50.950;18.224;2023-06-01T02:13:23;16.00;;;7.50;;
57325;SDS011;43161;50.950;18.224;2023-06-01T02:15:49;13.40;;;6.80;;
57325;SDS011;43161;50.950;18.224;2023-06-01T02:18:15;15.30;;;7.50;;
57325;SDS011;43161;50.950;18.224;2023-06-01T02:20:43;18.70;;;7.60;;
57325;SDS011;43161;50.950;18.224;2023-06-01T02:23:10;15.20;;;7.40;;
57325;SDS011;43161;50.950;18.224;2023-06-01T02:25:36;14.10;;;6.90;;
57325;SDS011;43161;50.950;18.224;2023-06-01T02:28:02;16.00;;;7.50;;
57325;SDS011;43161;50.950;18.224;2023-06-01T02:30:27;21.40;;;9.10;;
57325;SDS011;43161;50.950;18.224;2023-06-01T02:32:53;19.20;;;9.10;;
57325;SDS011;43161;50.950;18.224;2023-06-01T02:35:20;16.10;;;8.90;;
57325;SDS011;43161;50.950;18.224;2023-06-01T02:37:45;17.20;;;10.40;;
57325;SDS011;43161;50.950;18.224;2023-06-01T02:40:11;20.40;;;12.30;;
57325;SDS011;43161;50.950;18.224;2023-06-01T02:42:37;20.40;;;9.40;;
57325;SDS011;43161;50.950;18.224;2023-06-01T02:45:06;17.30;;;7.80;;
57325;SDS011;43161;50.950;18.224;2023-06-01T02:47:33;17.90;;;7.90;;
57325;SDS011;43161;50.950;18.224;2023-06-01T02:49:59;20.20;;;8.60;;
57325;SDS011;43161;50.950;18.224;2023-06-01T02:52:24;16.10;;;7.90;;
57325;SDS011;43161;50.950;18.224;2023-06-01T02:54:50;16.80;;;7.60;;
57325;SDS011;43161;50.950;18.224;2023-06-01T02:57:15;20.10;;;8.70;;
57325;SDS011;43161;50.950;18.224;2023-06-01T02:59:41;17.90;;;8.00;;
57325;SDS011;43161;50.950;18.224;2023-06-01T03:02:06;14.90;;;7.60;;
57325;SDS011;43161;50.950;18.224;2023-06-01T03:04:32;16.60;;;8.00;;
57325;SDS011;43161;50.950;18.224;2023-06-01T03:06:58;18.80;;;8.30;;
57325;SDS011;43161;50.950;18.224;2023-06-01T03:09:24;19.20;;;8.10;;
57325;SDS011;43161;50.950;18.224;2023-06-01T03:11:50;17.20;;;8.10;;
57325;SDS011;43161;50.950;18.224;2023-06-01T03:14:16;16.60;;;8.10;;
57325;SDS011;43161;50.950;18.224;2023-06-01T03:16:41;17.80;;;8.30;;
57325;SDS011;43161;50.950;18.224;2023-06-01T03:19:07;17.90;;;8.50;;
57325;SDS011;43161;50.950;18.224;2023-06-01T03:21:33;18.30;;;8.70;;
57325;SDS011;43161;50.950;18.224;2023-06-01T03:24:00;16.60;;;8.60;;
57325;SDS011;43161;50.950;18.224;2023-06-01T03:26:26;19.30;;;8.50;;
57325;SDS011;43161;50.950;18.224;2023-06-01T03:28:57;20.50;;;8.90;;
57325;SDS011;43161;50.950;18.224;2023-06-01T03:31:22;17.10;;;8.90;;
57325;SDS011;43161;50.950;18.224;2023-06-01T03:33:48;18.60;;;9.10;;
57325;SDS011;43161;50.950;18.224;2023-06-01T03:36:14;17.30;;;8.40;;
57325;SDS011;43161;50.950;18.224;2023-06-01T03:38:39;15.60;;;8.20;;
57325;SDS011;43161;50.950;18.224;2023-06-01T03:41:06;18.80;;;8.90;;
57325;SDS011;43161;50.950;18.224;2023-06-01T03:43:32;17.30;;;8.90;;
57325;SDS011;43161;50.950;18.224;2023-06-01T03:45:59;15.60;;;8.60;;
57325;SDS011;43161;50.950;18.224;2023-06-01T03:48:25;16.10;;;8.60;;
57325;SDS011;43161;50.950;18.224;2023-06-01T03:50:51;18.10;;;8.90;;
57325;SDS011;43161;50.950;18.224;2023-06-01T03:53:17;26.30;;;10.30;;
57325;SDS011;43161;50.950;18.224;2023-06-01T03:55:42;19.70;;;9.50;;
57325;SDS011;43161;50.950;18.224;2023-06-01T03:58:08;15.70;;;8.80;;
57325;SDS011;43161;50.950;18.224;2023-06-01T04:00:34;18.00;;;9.20;;
57325;SDS011;43161;50.950;18.224;2023-06-01T04:03:00;15.50;;;8.80;;
57325;SDS011;43161;50.950;18.224;2023-06-01T04:05:35;18.70;;;9.20;;
57325;SDS011;43161;50.950;18.224;2023-06-01T04:08:01;18.40;;;9.00;;
57325;SDS011;43161;50.950;18.224;2023-06-01T04:10:27;18.30;;;9.20;;
57325;SDS011;43161;50.950;18.224;2023-06-01T04:12:53;19.20;;;9.30;;
57325;SDS011;43161;50.950;18.224;2023-06-01T04:15:19;20.00;;;9.10;;
57325;SDS011;43161;50.950;18.224;2023-06-01T04:17:45;15.80;;;8.10;;
57325;SDS011;43161;50.950;18.224;2023-06-01T04:20:12;17.60;;;9.20;;
57325;SDS011;43161;50.950;18.224;2023-06-01T04:22:40;21.10;;;9.40;;
57325;SDS011;43161;50.950;18.224;2023-06-01T04:25:07;20.20;;;9.80;;
57325;SDS011;43161;50.950;18.224;2023-06-01T04:27:34;17.80;;;8.80;;
57325;SDS011;43161;50.950;18.224;2023-06-01T04:30:06;19.10;;;9.10;;
57325;SDS011;43161;50.950;18.224;2023-06-01T04:32:35;17.10;;;8.60;;
57325;SDS011;43161;50.950;18.224;2023-06-01T04:35:06;17.10;;;9.30;;
57325;SDS011;43161;50.950;18.224;2023-06-01T04:37:35;16.30;;;9.00;;
57325;SDS011;43161;50.950;18.224;2023-06-01T04:40:06;20.90;;;12.20;;
57325;SDS011;43161;50.950;18.224;2023-06-01T04:42:33;16.70;;;9.20;;
57325;SDS011;43161;50.950;18.224;2023-06-01T04:45:00;19.10;;;8.90;;
57325;SDS011;43161;50.950;18.224;2023-06-01T04:47:32;17.20;;;8.70;;
57325;SDS011;43161;50.950;18.224;2023-06-01T04:50:06;19.80;;;9.40;;
57325;SDS011;43161;50.950;18.224;2023-06-01T04:52:34;16.30;;;8.70;;
57325;SDS011;43161;50.950;18.224;2023-06-01T04:55:01;17.20;;;8.80;;
57325;SDS011;43161;50.950;18.224;2023-06-01T04:57:29;16.50;;;8.30;;
57325;SDS011;43161;50.950;18.224;2023-06-01T04:59:55;19.70;;;8.60;;
57325;SDS011;43161;50.950;18.224;2023-06-01T05:02:23;15.80;;;8.80;;
57325;SDS011;43161;50.950;18.224;2023-06-01T05:04:50;15.80;;;8.50;;
57325;SDS011;43161;50.950;18.224;2023-06-01T05:07:15;18.60;;;8.90;;
57325;SDS011;43161;50.950;18.224;2023-06-01T05:09:41;18.30;;;9.30;;
57325;SDS011;43161;50.950;18.224;2023-06-01T05:12:07;16.20;;;8.40;;
57325;SDS011;43161;50.950;18.224;2023-06-01T05:14:33;19.50;;;8.70;;
57325;SDS011;43161;50.950;18.224;2023-06-01T05:16:58;21.50;;;8.70;;
57325;SDS011;43161;50.950;18.224;2023-06-01T05:19:24;16.10;;;8.00;;
57325;SDS011;43161;50.950;18.224;2023-06-01T05:21:50;17.80;;;8.90;;
57325;SDS011;43161;50.950;18.224;2023-06-01T05:24:15;20.30;;;9.20;;
57325;SDS011;43161;50.950;18.224;2023-06-01T05:26:41;15.70;;;9.00;;
57325;SDS011;43161;50.950;18.224;2023-06-01T05:29:07;17.20;;;8.30;;
57325;SDS011;43161;50.950;18.224;2023-06-01T05:31:33;17.30;;;8.40;;
57325;SDS011;43161;50.950;18.224;2023-06-01T05:33:58;19.00;;;9.10;;
57325;SDS011;43161;50.950;18.224;2023-06-01T05:36:24;15.20;;;8.60;;
57325;SDS011;43161;50.950;18.224;2023-06-01T05:38:50;16.40;;;8.40;;
57325;SDS011;43161;50.950;18.224;2023-06-01T05:41:16;17.30;;;8.80;;
57325;SDS011;43161;50.950;18.224;2023-06-01T05:43:41;20.60;;;8.20;;
57325;SDS011;43161;50.950;18.224;2023-06-01T05:46:07;16.50;;;7.60;;
57325;SDS011;43161;50.950;18.224;2023-06-01T05:48:33;12.80;;;6.80;;
57325;SDS011;43161;50.950;18.224;2023-06-01T05:50:58;15.40;;;6.60;;
57325;SDS011;43161;50.950;18.224;2023-06-01T05:53:24;14.00;;;6.40;;
57325;SDS011;43161;50.950;18.224;2023-06-01T05:55:53;18.80;;;6.80;;
57325;SDS011;43161;50.950;18.224;2023-06-01T05:58:19;13.10;;;5.90;;
57325;SDS011;43161;50.950;18.224;2023-06-01T06:00:45;17.50;;;7.00;;
57325;SDS011;43161;50.950;18.224;2023-06-01T06:03:11;15.90;;;5.80;;
57325;SDS011;43161;50.950;18.224;2023-06-01T06:05:37;12.80;;;5.90;;
57325;SDS011;43161;50.950;18.224;2023-06-01T06:08:03;14.70;;;6.20;;
57325;SDS011;43161;50.950;18.224;2023-06-01T06:10:29;14.10;;;6.50;;
57325;SDS011;43161;50.950;18.224;2023-06-01T06:12:55;18.70;;;9.20;;
57325;SDS011;43161;50.950;18.224;2023-06-01T06:15:21;15.90;;;6.30;;
57325;SDS011;43161;50.950;18.224;2023-06-01T06:17:46;14.10;;;5.30;;
57325;SDS011;43161;50.950;18.224;2023-06-01T06:20:12;12.30;;;5.00;;
57325;SDS011;43161;50.950;18.224;2023-06-01T06:22:38;14.30;;;4.80;;
57325;SDS011;43161;50.950;18.224;2023-06-01T06:25:04;13.10;;;4.80;;
57325;SDS011;43161;50.950;18.224;2023-06-01T06:27:30;14.30;;;4.70;;
57325;SDS011;43161;50.950;18.224;2023-06-01T06:29:55;12.30;;;4.40;;
57325;SDS011;43161;50.950;18.224;2023-06-01T06:32:21;12.20;;;4.10;;
57325;SDS011;43161;50.950;18.224;2023-06-01T06:34:47;11.50;;;3.80;;
57325;SDS011;43161;50.950;18.224;2023-06-01T06:37:13;10.90;;;3.60;;
57325;SDS011;43161;50.950;18.224;2023-06-01T06:39:38;11.50;;;3.90;;
57325;SDS011;43161;50.950;18.224;2023-06-01T06:42:04;14.00;;;3.60;;
57325;SDS011;43161;50.950;18.224;2023-06-01T06:44:30;9.10;;;3.40;;
57325;SDS011;43161;50.950;18.224;2023-06-01T06:46:59;11.50;;;3.60;;
57325;SDS011;43161;50.950;18.224;2023-06-01T06:49:28;11.80;;;3.60;;
57325;SDS011;43161;50.950;18.224;2023-06-01T06:51:53;9.50;;;3.30;;
57325;SDS011;43161;50.950;18.224;2023-06-01T06:54:19;11.70;;;3.80;;
57325;SDS011;43161;50.950;18.224;2023-06-01T06:56:45;11.40;;;3.10;;
57325;SDS011;43161;50.950;18.224;2023-06-01T06:59:10;12.10;;;3.10;;
57325;SDS011;43161;50.950;18.224;2023-06-01T07:01:36;11.50;;;3.20;;
57325;SDS011;43161;50.950;18.224;2023-06-01T07:04:03;10.90;;;3.20;;
57325;SDS011;43161;50.950;18.224;2023-06-01T07:06:31;9.30;;;3.50;;
57325;SDS011;43161;50.950;18.224;2023-06-01T07:08:58;10.70;;;3.40;;
57325;SDS011;43161;50.950;18.224;2023-06-01T07:11:24;13.60;;;3.30;;
57325;SDS011;43161;50.950;18.224;2023-06-01T07:13:52;10.40;;;2.70;;
57325;SDS011;43161;50.950;18.224;2023-06-01T07:16:18;10.80;;;3.30;;
57325;SDS011;43161;50.950;18.224;2023-06-01T07:18:44;11.00;;;3.20;;
57325;SDS011;43161;50.950;18.224;2023-06-01T07:21:10;8.00;;;2.70;;
57325;SDS011;43161;50.950;18.224;2023-06-01T07:23:35;8.90;;;3.00;;
57325;SDS011;43161;50.950;18.224;2023-06-01T07:26:01;8.90;;;2.90;;
57325;SDS011;43161;50.950;18.224;2023-06-01T07:28:27;9.30;;;2.80;;
57325;SDS011;43161;50.950;18.224;2023-06-01T07:30:53;7.50;;;2.70;;
57325;SDS011;43161;50.950;18.224;2023-06-01T07:33:19;9.50;;;2.70;;
57325;SDS011;43161;50.950;18.224;2023-06-01T07:35:45;7.80;;;2.40;;
57325;SDS011;43161;50.950;18.224;2023-06-01T07:38:11;9.00;;;2.50;;
57325;SDS011;43161;50.950;18.224;2023-06-01T07:40:37;10.00;;;3.60;;
57325;SDS011;43161;50.950;18.224;2023-06-01T07:43:03;9.70;;;2.60;;
57325;SDS011;43161;50.950;18.224;2023-06-01T07:45:29;8.40;;;2.50;;
57325;SDS011;43161;50.950;18.224;2023-06-01T07:47:54;9.80;;;2.50;;
57325;SDS011;43161;50.950;18.224;2023-06-01T07:50:20;8.50;;;2.40;;
57325;SDS011;43161;50.950;18.224;2023-06-01T07:52:47;10.40;;;2.80;;
57325;SDS011;43161;50.950;18.224;2023-06-01T07:55:12;8.50;;;2.70;;
57325;SDS011;43161;50.950;18.224;2023-06-01T07:57:39;9.50;;;2.60;;
57325;SDS011;43161;50.950;18.224;2023-06-01T08:00:06;7.50;;;2.50;;
57325;SDS011;43161;50.950;18.224;2023-06-01T08:02:37;11.90;;;2.80;;
57325;SDS011;43161;50.950;18.224;2023-06-01T08:05:04;9.10;;;2.70;;
57325;SDS011;43161;50.950;18.224;2023-06-01T08:07:30;9.90;;;3.10;;
57325;SDS011;43161;50.950;18.224;2023-06-01T08:09:56;9.70;;;2.80;;
57325;SDS011;43161;50.950;18.224;2023-06-01T08:12:23;9.10;;;2.60;;
57325;SDS011;43161;50.950;18.224;2023-06-01T08:14:48;8.70;;;2.40;;
57325;SDS011;43161;50.950;18.224;2023-06-01T08:17:14;8.80;;;2.00;;
57325;SDS011;43161;50.950;18.224;2023-06-01T08:19:40;8.10;;;2.30;;
57325;SDS011;43161;50.950;18.224;2023-06-01T08:22:09;9.40;;;2.70;;
57325;SDS011;43161;50.950;18.224;2023-06-01T08:24:37;7.80;;;2.20;;
57325;SDS011;43161;50.950;18.224;2023-06-01T08:27:15;6.50;;;2.10;;
57325;SDS011;43161;50.950;18.224;2023-06-01T08:29:48;9.00;;;2.40;;
57325;SDS011;43161;50.950;18.224;2023-06-01T08:32:15;7.30;;;2.30;;
57325;SDS011;43161;50.950;18.224;2023-06-01T08:34:44;8.30;;;2.30;;
57325;SDS011;43161;50.950;18.224;2023-06-01T08:37:11;8.40;;;2.20;;
57325;SDS011;43161;50.950;18.224;2023-06-01T08:39:38;6.50;;;1.80;;
57325;SDS011;43161;50.950;18.224;2023-06-01T08:44:33;8.70;;;2.20;;
57325;SDS011;43161;50.950;18.224;2023-06-01T08:47:02;9.50;;;1.90;;
57325;SDS011;43161;50.950;18.224;2023-06-01T08:49:29;9.10;;;2.40;;
57325;SDS011;43161;50.950;18.224;2023-06-01T08:51:56;8.10;;;1.90;;
57325;SDS011;43161;50.950;18.224;2023-06-01T08:54:32;8.90;;;2.50;;
57325;SDS011;43161;50.950;18.224;2023-06-01T08:56:59;6.80;;;2.00;;
57325;SDS011;43161;50.950;18.224;2023-06-01T08:59:25;8.30;;;1.90;;
57325;SDS011;43161;50.950;18.224;2023-06-01T09:01:51;9.20;;;2.30;;
57325;SDS011;43161;50.950;18.224;2023-06-01T09:04:18;8.30;;;2.00;;
57325;SDS011;43161;50.950;18.224;2023-06-01T09:06:44;7.40;;;1.90;;
57325;SDS011;43161;50.950;18.224;2023-06-01T09:09:11;7.30;;;2.20;;
57325;SDS011;43161;50.950;18.224;2023-06-01T09:11:38;10.00;;;2.20;;
57325;SDS011;43161;50.950;18.224;2023-06-01T09:14:18;8.40;;;2.30;;
57325;SDS011;43161;50.950;18.224;2023-06-01T09:16:47;10.40;;;2.60;;
57325;SDS011;43161;50.950;18.224;2023-06-01T09:19:13;8.20;;;2.30;;
57325;SDS011;43161;50.950;18.224;2023-06-01T09:21:39;9.30;;;1.90;;
57325;SDS011;43161;50.950;18.224;2023-06-01T09:26:48;8.40;;;2.30;;
57325;SDS011;43161;50.950;18.224;2023-06-01T09:29:14;6.70;;;1.90;;
57325;SDS011;43161;50.950;18.224;2023-06-01T09:34:09;10.20;;;2.30;;
57325;SDS011;43161;50.950;18.224;2023-06-01T09:36:44;10.30;;;2.10;;
57325;SDS011;43161;50.950;18.224;2023-06-01T09:39:11;7.40;;;1.90;;
57325;SDS011;43161;50.950;18.224;2023-06-01T09:44:30;11.50;;;2.10;;
57325;SDS011;43161;50.950;18.224;2023-06-01T09:47:04;10.80;;;1.90;;
57325;SDS011;43161;50.950;18.224;2023-06-01T09:52:14;9.80;;;1.90;;
57325;SDS011;43161;50.950;18.224;2023-06-01T09:54:42;5.60;;;1.30;;
57325;SDS011;43161;50.950;18.224;2023-06-01T09:57:10;7.90;;;1.60;;
57325;SDS011;43161;50.950;18.224;2023-06-01T09:59:46;6.50;;;1.50;;
57325;SDS011;43161;50.950;18.224;2023-06-01T10:02:15;7.70;;;1.70;;
57325;SDS011;43161;50.950;18.224;2023-06-01T10:07:16;9.50;;;1.50;;
57325;SDS011;43161;50.950;18.224;2023-06-01T10:09:43;5.50;;;1.40;;
57325;SDS011;43161;50.950;18.224;2023-06-01T10:12:11;8.90;;;1.40;;
57325;SDS011;43161;50.950;18.224;2023-06-01T10:14:37;11.70;;;2.00;;
57325;SDS011;43161;50.950;18.224;2023-06-01T10:17:04;9.00;;;2.00;;
57325;SDS011;43161;50.950;18.224;2023-06-01T10:19:30;8.40;;;1.70;;
57325;SDS011;43161;50.950;18.224;2023-06-01T10:21:56;7.30;;;1.70;;
57325;SDS011;43161;50.950;18.224;2023-06-01T10:24:22;6.70;;;1.70;;
57325;SDS011;43161;50.950;18.224;2023-06-01T10:26:56;6.60;;;1.80;;
57325;SDS011;43161;50.950;18.224;2023-06-01T10:29:24;7.10;;;1.70;;
57325;SDS011;43161;50.950;18.224;2023-06-01T10:31:50;7.80;;;1.70;;
57325;SDS011;43161;50.950;18.224;2023-06-01T10:34:35;8.20;;;1.70;;
57325;SDS011;43161;50.950;18.224;2023-06-01T10:39:33;6.00;;;1.70;;
57325;SDS011;43161;50.950;18.224;2023-06-01T10:57:45;7.80;;;1.80;;
57325;SDS011;43161;50.950;18.224;2023-06-01T11:13:20;8.30;;;1.90;;
57325;SDS011;43161;50.950;18.224;2023-06-01T11:21:42;6.00;;;1.70;;
57325;SDS011;43161;50.950;18.224;2023-06-01T11:24:12;11.30;;;2.10;;
57325;SDS011;43161;50.950;18.224;2023-06-01T11:26:42;6.40;;;1.50;;
57325;SDS011;43161;50.950;18.224;2023-06-01T11:29:14;9.90;;;2.00;;
57325;SDS011;43161;50.950;18.224;2023-06-01T11:34:09;6.20;;;1.40;;
57325;SDS011;43161;50.950;18.224;2023-06-01T11:36:39;9.00;;;1.70;;
57325;SDS011;43161;50.950;18.224;2023-06-01T11:39:15;7.80;;;1.60;;
57325;SDS011;43161;50.950;18.224;2023-06-01T11:41:43;7.40;;;1.60;;
57325;SDS011;43161;50.950;18.224;2023-06-01T11:44:09;7.20;;;1.60;;
57325;SDS011;43161;50.950;18.224;2023-06-01T11:46:35;6.20;;;1.60;;
57325;SDS011;43161;50.950;18.224;2023-06-01T11:49:03;10.40;;;1.80;;
57325;SDS011;43161;50.950;18.224;2023-06-01T11:51:31;7.20;;;1.70;;
57325;SDS011;43161;50.950;18.224;2023-06-01T11:53:59;7.50;;;1.50;;
57325;SDS011;43161;50.950;18.224;2023-06-01T11:59:02;6.30;;;1.60;;
57325;SDS011;43161;50.950;18.224;2023-06-01T12:01:41;6.80;;;1.90;;
57325;SDS011;43161;50.950;18.224;2023-06-01T12:04:18;6.30;;;1.50;;
57325;SDS011;43161;50.950;18.224;2023-06-01T12:06:45;9.10;;;1.90;;
57325;SDS011;43161;50.950;18.224;2023-06-01T12:09:11;8.00;;;1.70;;
57325;SDS011;43161;50.950;18.224;2023-06-01T12:11:38;6.60;;;1.90;;
57325;SDS011;43161;50.950;18.224;2023-06-01T12:14:04;10.40;;;1.40;;
57325;SDS011;43161;50.950;18.224;2023-06-01T12:19:19;8.70;;;1.70;;
57325;SDS011;43161;50.950;18.224;2023-06-01T12:21:47;7.80;;;1.70;;
57325;SDS011;43161;50.950;18.224;2023-06-01T12:24:14;8.40;;;1.80;;
57325;SDS011;43161;50.950;18.224;2023-06-01T12:26:40;13.50;;;2.00;;
57325;SDS011;43161;50.950;18.224;2023-06-01T12:29:06;7.10;;;1.50;;
57325;SDS011;43161;50.950;18.224;2023-06-01T12:31:32;27.70;;;1.80;;
57325;SDS011;43161;50.950;18.224;2023-06-01T12:33:58;7.40;;;1.50;;
57325;SDS011;43161;50.950;18.224;2023-06-01T12:39:06;7.20;;;1.40;;
57325;SDS011;43161;50.950;18.224;2023-06-01T12:41:32;8.10;;;1.70;;
57325;SDS011;43161;50.950;18.224;2023-06-01T12:43:58;8.70;;;2.00;;
57325;SDS011;43161;50.950;18.224;2023-06-01T12:46:27;6.70;;;1.70;;
57325;SDS011;43161;50.950;18.224;2023-06-01T12:49:10;6.30;;;1.50;;
57325;SDS011;43161;50.950;18.224;2023-06-01T12:51:37;5.90;;;1.40;;
57325;SDS011;43161;50.950;18.224;2023-06-01T12:54:03;5.70;;;1.50;;
57325;SDS011;43161;50.950;18.224;2023-06-01T12:56:29;8.00;;;1.50;;
57325;SDS011;43161;50.950;18.224;2023-06-01T12:58:55;7.90;;;1.70;;
57325;SDS011;43161;50.950;18.224;2023-06-01T13:01:21;9.80;;;1.40;;
57325;SDS011;43161;50.950;18.224;2023-06-01T13:03:47;6.20;;;1.10;;
57325;SDS011;43161;50.950;18.224;2023-06-01T13:06:14;5.80;;;1.50;;
57325;SDS011;43161;50.950;18.224;2023-06-01T13:08:42;8.70;;;1.20;;
57325;SDS011;43161;50.950;18.224;2023-06-01T13:11:08;5.60;;;1.30;;
57325;SDS011;43161;50.950;18.224;2023-06-01T13:13:34;5.10;;;1.20;;
57325;SDS011;43161;50.950;18.224;2023-06-01T13:16:00;6.70;;;1.20;;
57325;SDS011;43161;50.950;18.224;2023-06-01T13:18:27;9.20;;;1.40;;
57325;SDS011;43161;50.950;18.224;2023-06-01T13:20:53;6.60;;;1.40;;
57325;SDS011;43161;50.950;18.224;2023-06-01T13:23:18;6.20;;;1.20;;
57325;SDS011;43161;50.950;18.224;2023-06-01T13:25:44;6.20;;;1.40;;
57325;SDS011;43161;50.950;18.224;2023-06-01T13:28:10;6.40;;;1.30;;
57325;SDS011;43161;50.950;18.224;2023-06-01T13:30:38;6.00;;;1.30;;
57325;SDS011;43161;50.950;18.224;2023-06-01T13:33:04;13.20;;;1.70;;
57325;SDS011;43161;50.950;18.224;2023-06-01T13:35:30;5.00;;;1.30;;
57325;SDS011;43161;50.950;18.224;2023-06-01T13:37:56;5.50;;;1.20;;
57325;SDS011;43161;50.950;18.224;2023-06-01T13:40:22;5.80;;;1.30;;
57325;SDS011;43161;50.950;18.224;2023-06-01T13:42:51;5.60;;;1.10;;
57325;SDS011;43161;50.950;18.224;2023-06-01T13:45:17;5.90;;;1.20;;
57325;SDS011;43161;50.950;18.224;2023-06-01T13:47:43;4.50;;;1.10;;
57325;SDS011;43161;50.950;18.224;2023-06-01T13:50:09;4.10;;;0.90;;
57325;SDS011;43161;50.950;18.224;2023-06-01T13:52:37;8.10;;;1.40;;
57325;SDS011;43161;50.950;18.224;2023-06-01T13:55:04;6.90;;;1.00;;
57325;SDS011;43161;50.950;18.224;2023-06-01T13:57:32;5.20;;;1.20;;
57325;SDS011;43161;50.950;18.224;2023-06-01T13:59:58;5.60;;;1.30;;
57325;SDS011;43161;50.950;18.224;2023-06-01T14:02:23;6.30;;;1.20;;
57325;SDS011;43161;50.950;18.224;2023-06-01T14:04:49;7.00;;;1.20;;
57325;SDS011;43161;50.950;18.224;2023-06-01T14:07:15;6.20;;;1.40;;
57325;SDS011;43161;50.950;18.224;2023-06-01T14:09:40;5.00;;;1.30;;
57325;SDS011;43161;50.950;18.224;2023-06-01T14:12:06;4.70;;;1.20;;
57325;SDS011;43161;50.950;18.224;2023-06-01T14:14:32;3.90;;;1.10;;
57325;SDS011;43161;50.950;18.224;2023-06-01T14:16:58;9.30;;;1.00;;
57325;SDS011;43161;50.950;18.224;2023-06-01T14:19:23;5.70;;;1.20;;
57325;SDS011;43161;50.950;18.224;2023-06-01T14:21:52;5.40;;;1.10;;
57325;SDS011;43161;50.950;18.224;2023-06-01T14:24:18;5.30;;;1.00;;
57325;SDS011;43161;50.950;18.224;2023-06-01T14:26:44;5.70;;;1.20;;
57325;SDS011;43161;50.950;18.224;2023-06-01T14:29:10;5.90;;;1.00;;
57325;SDS011;43161;50.950;18.224;2023-06-01T14:31:36;7.10;;;1.20;;
57325;SDS011;43161;50.950;18.224;2023-06-01T14:34:01;9.10;;;1.20;;
57325;SDS011;43161;50.950;18.224;2023-06-01T14:36:27;6.30;;;1.00;;
57325;SDS011;43161;50.950;18.224;2023-06-01T14:38:53;5.00;;;1.10;;
57325;SDS011;43161;50.950;18.224;2023-06-01T14:41:19;7.90;;;1.30;;
57325;SDS011;43161;50.950;18.224;2023-06-01T14:43:45;4.50;;;0.90;;
57325;SDS011;43161;50.950;18.224;2023-06-01T14:46:10;5.80;;;1.10;;
57325;SDS011;43161;50.950;18.224;2023-06-01T14:48:36;3.00;;;0.90;;
57325;SDS011;43161;50.950;18.224;2023-06-01T14:51:02;5.00;;;1.00;;
57325;SDS011;43161;50.950;18.224;2023-06-01T14:53:28;4.20;;;1.10;;
57325;SDS011;43161;50.950;18.224;2023-06-01T14:55:54;7.30;;;1.40;;
57325;SDS011;43161;50.950;18.224;2023-06-01T14:58:19;5.80;;;1.00;;
57325;SDS011;43161;50.950;18.224;2023-06-01T15:00:45;5.40;;;1.10;;
57325;SDS011;43161;50.950;18.224;2023-06-01T15:03:11;5.50;;;1.10;;
57325;SDS011;43161;50.950;18.224;2023-06-01T15:05:36;6.70;;;1.30;;
57325;SDS011;43161;50.950;18.224;2023-06-01T15:08:05;5.90;;;1.30;;
57325;SDS011;43161;50.950;18.224;2023-06-01T15:10:32;7.40;;;2.10;;
57325;SDS011;43161;50.950;18.224;2023-06-01T15:12:57;5.30;;;1.10;;
57325;SDS011;43161;50.950;18.224;2023-06-01T15:15:23;9.20;;;1.70;;
57325;SDS011;43161;50.950;18.224;2023-06-01T15:17:49;5.30;;;1.40;;
57325;SDS011;43161;50.950;18.224;2023-06-01T15:20:15;8.30;;;1.30;;
57325;SDS011;43161;50.950;18.224;2023-06-01T15:22:41;7.70;;;1.40;;
57325;SDS011;43161;50.950;18.224;2023-06-01T15:25:06;5.80;;;1.20;;
57325;SDS011;43161;50.950;18.224;2023-06-01T15:27:33;6.70;;;1.50;;
57325;SDS011;43161;50.950;18.224;2023-06-01T15:29:58;6.80;;;1.50;;
57325;SDS011;43161;50.950;18.224;2023-06-01T15:32:24;6.50;;;1.80;;
57325;SDS011;43161;50.950;18.224;2023-06-01T15:34:49;7.60;;;1.70;;
57325;SDS011;43161;50.950;18.224;2023-06-01T15:37:15;12.10;;;1.80;;
57325;SDS011;43161;50.950;18.224;2023-06-01T15:39:41;6.70;;;1.30;;